Texhoma, OK (73949)

1:06 AM CST on February 11, 2016 (GMT -0600)
Grass Land | | Change Station
CLOSE
Current Station
Personal Weather Station
Location: Goodwell, OK
Elevation: 3323 ft
Nearby Weather Stations

Elev 3323 ft 36.55 °N, 101.66 °W | Updated 19 seconds ago

Mostly Cloudy
Mostly Cloudy
35.4 °F
Feels Like 31 °F
N
4.7
Wind Variable Wind from NW

Today
High -- | Low -- °F
--% Chance of Precip.
Yesterday
High -- | Low -- °F
Precip. -- in
Pressure 30.03 in
Visibility 10.0 miles
Clouds Clear
Windchill 31 °F
Dew Point 17 °F
Humidity 46%
Rainfall 0.00 in
Snow Depth Not available.
7:39 AM 6:23 PM
Waxing Crescent, 10% visible
METAR KGUY 110653Z AUTO 33007KT 10SM CLR 05/M08 A3011 RMK AO2 SLP169 T00501083
Pressure 30.03 in
Visibility 10.0 miles
Clouds Clear
Windchill 31 °F
Dew Point 17 °F
Humidity 46%
Rainfall 0.00 in
Snow Depth Not available.
7:39 AM 6:23 PM
Waxing Crescent, 10% visible
METAR KGUY 110653Z AUTO 33007KT 10SM CLR 05/M08 A3011 RMK AO2 SLP169 T00501083

10-Day Weather Forecast

Almanac

Astronomy

Feb. 11, 2016 Rise Set
Actual Time
Civil Twilight
Nautical Twilight
Astronomical Twilight
Moon
Length of Visible Light
Length of Day
Tomorrow will be .
, % of the Moon is Illuminated

Today's Extremes

State Highs State Lows

Community

WunderPhotos

Upload Photos

1,892,028 photos uploaded!

WunderBlog® & News

Nearby

Air Quality

  Air Quality AQ Index Pollutant
Not available.

Snow Depth

Station Depth Elevation

Earthquake Activity

City Distance Mag. Time & Date
Minimum magnitude displayed is 2.5.

Coastal Water Temperatures

Place Temperature

Stations

Nearby Weather Stations

Station Location Temp. Windchill Dew Point Humidity Wind Precip. Elev Updated Type
                   

Watches & Warnings

There are currently no watches in effect.